createdAt,value
2022-12-01T00:01:25.881Z,33.10
2022-12-01T00:03:54.977Z,30.05
2022-12-01T00:06:23.602Z,30.08
2022-12-01T00:09:14.055Z,32.40
2022-12-01T00:11:45.269Z,32.80
2022-12-01T00:14:14.534Z,31.20
2022-12-01T00:16:45.003Z,29.63
2022-12-01T00:19:13.689Z,30.15
2022-12-01T00:21:42.374Z,29.20
2022-12-01T00:24:12.888Z,30.63
2022-12-01T00:26:41.447Z,30.55
2022-12-01T00:29:10.013Z,30.58
2022-12-01T00:31:38.684Z,29.00
2022-12-01T00:34:11.378Z,27.13
2022-12-01T00:36:40.780Z,28.63
2022-12-01T00:39:12.873Z,28.55
2022-12-01T00:41:41.456Z,26.95
2022-12-01T00:44:10.246Z,30.08
2022-12-01T00:46:38.910Z,31.13
2022-12-01T00:49:07.472Z,27.95
2022-12-01T00:51:36.077Z,29.70
2022-12-01T00:54:05.033Z,28.35
2022-12-01T00:56:34.979Z,31.50
2022-12-01T00:59:03.535Z,30.00
2022-12-01T01:01:32.168Z,29.27
2022-12-01T01:04:03.857Z,28.98
2022-12-01T01:06:32.364Z,30.55
2022-12-01T01:09:00.924Z,29.33
2022-12-01T01:11:31.623Z,29.55
2022-12-01T01:14:04.237Z,29.05
2022-12-01T01:16:34.397Z,29.05
2022-12-01T01:19:03.012Z,30.45
2022-12-01T01:21:33.450Z,29.20
2022-12-01T01:24:02.043Z,30.10
2022-12-01T01:26:31.844Z,28.63
2022-12-01T01:29:03.089Z,27.48
2022-12-01T01:31:31.904Z,29.02
2022-12-01T01:34:00.450Z,29.73
2022-12-01T01:36:29.941Z,29.35
2022-12-01T01:38:58.505Z,31.70
2022-12-01T01:41:27.090Z,31.38
2022-12-01T01:43:56.437Z,30.45
2022-12-01T01:46:28.917Z,29.20
2022-12-01T01:49:00.169Z,29.55
2022-12-01T01:51:30.397Z,28.92
2022-12-01T01:54:03.017Z,32.00
2022-12-01T01:56:31.639Z,30.52
2022-12-01T01:59:00.419Z,30.80
2022-12-01T02:01:31.673Z,32.65
2022-12-01T02:04:00.226Z,29.65
2022-12-01T02:06:28.816Z,32.08
2022-12-01T02:08:57.332Z,31.00
2022-12-01T02:11:49.418Z,30.90
2022-12-01T02:14:32.134Z,30.33
2022-12-01T02:17:07.522Z,29.45
2022-12-01T02:19:45.845Z,31.52
2022-12-01T02:22:20.603Z,32.60
2022-12-01T02:25:03.418Z,30.02
2022-12-01T02:27:43.750Z,31.08
2022-12-01T02:30:13.593Z,31.27
2022-12-01T02:32:49.151Z,30.00
2022-12-01T02:35:22.046Z,29.83
2022-12-01T02:37:53.263Z,29.52
2022-12-01T02:40:23.884Z,31.58
2022-12-01T02:43:00.035Z,30.83
2022-12-01T02:45:34.091Z,32.80
2022-12-01T02:48:05.033Z,31.27
2022-12-01T02:50:33.921Z,30.48
2022-12-01T02:53:03.174Z,30.10
2022-12-01T02:55:31.749Z,31.30
2022-12-01T02:58:00.289Z,31.10
2022-12-01T03:00:29.294Z,30.58
2022-12-01T03:03:08.496Z,30.83
2022-12-01T03:05:41.434Z,31.45
2022-12-01T03:08:13.909Z,28.63
2022-12-01T03:10:46.600Z,30.75
2022-12-01T03:13:20.374Z,31.63
2022-12-01T03:15:53.526Z,32.38
2022-12-01T03:18:27.198Z,32.33
2022-12-01T03:20:58.416Z,31.30
2022-12-01T03:23:27.839Z,32.97
2022-12-01T03:25:56.478Z,32.05
2022-12-01T03:28:28.836Z,32.67
2022-12-01T03:31:00.011Z,32.53
2022-12-01T03:33:33.034Z,34.40
2022-12-01T03:36:02.565Z,34.05
2022-12-01T03:38:31.969Z,36.10
2022-12-01T03:41:03.046Z,33.05
2022-12-01T03:43:32.793Z,34.63
2022-12-01T03:46:04.014Z,34.65
2022-12-01T03:48:34.007Z,35.63
2022-12-01T03:51:06.116Z,33.10
2022-12-01T03:53:37.411Z,32.72
2022-12-01T03:56:06.930Z,33.85
2022-12-01T03:58:37.884Z,37.15
2022-12-01T04:01:08.939Z,34.80
2022-12-01T04:03:38.914Z,32.72
2022-12-01T04:06:07.965Z,32.42
2022-12-01T04:08:37.512Z,34.28
2022-12-01T04:11:32.232Z,37.13
2022-12-01T04:14:00.242Z,32.63
2022-12-01T04:16:28.856Z,34.85
2022-12-01T04:18:58.929Z,34.38
2022-12-01T04:21:29.293Z,35.33
2022-12-01T04:24:03.506Z,34.33
2022-12-01T04:26:33.260Z,34.20
2022-12-01T04:29:01.865Z,34.88
2022-12-01T04:31:30.536Z,34.60
2022-12-01T04:34:00.714Z,36.30
2022-12-01T04:36:30.630Z,33.95
2022-12-01T04:38:59.271Z,36.20
2022-12-01T04:41:27.903Z,34.28
2022-12-01T04:43:56.536Z,34.83
2022-12-01T04:46:25.143Z,33.15
2022-12-01T04:48:53.824Z,34.85
2022-12-01T04:51:23.757Z,35.85
2022-12-01T04:53:52.416Z,32.83
2022-12-01T04:56:20.932Z,32.63
2022-12-01T04:58:51.830Z,33.35
2022-12-01T05:01:20.482Z,33.83
2022-12-01T05:03:50.431Z,33.80
2022-12-01T05:06:20.740Z,34.65
2022-12-01T05:08:50.733Z,34.83
2022-12-01T05:11:19.481Z,34.22
2022-12-01T05:13:49.113Z,33.85
2022-12-01T05:16:18.652Z,33.33
2022-12-01T05:18:49.793Z,34.78
2022-12-01T05:21:20.573Z,35.00
2022-12-01T05:23:50.508Z,31.35
2022-12-01T05:26:19.098Z,33.70
2022-12-01T05:28:47.690Z,32.25
2022-12-01T05:31:16.287Z,38.13
2022-12-01T05:33:44.953Z,35.40
2022-12-01T05:36:13.517Z,34.47
2022-12-01T05:38:43.835Z,34.80
2022-12-01T05:41:13.780Z,36.75
2022-12-01T05:43:42.375Z,38.08
2022-12-01T05:46:10.968Z,39.40
2022-12-01T05:48:39.601Z,38.17
2022-12-01T05:51:11.310Z,36.45
2022-12-01T05:53:39.891Z,37.72
2022-12-01T05:56:09.164Z,36.80
2022-12-01T05:58:40.651Z,35.83
2022-12-01T06:01:09.272Z,37.45
2022-12-01T06:03:37.858Z,36.45
2022-12-01T06:06:06.664Z,37.72
2022-12-01T06:08:35.272Z,34.33
2022-12-01T06:11:06.258Z,35.38
2022-12-01T06:13:34.842Z,36.30
2022-12-01T06:16:06.669Z,33.75
2022-12-01T06:18:38.118Z,34.22
2022-12-01T06:21:10.537Z,34.10
2022-12-01T06:23:40.283Z,31.70
2022-12-01T06:26:08.854Z,35.40
2022-12-01T06:28:37.430Z,34.67
2022-12-01T06:31:07.778Z,33.95
2022-12-01T06:33:36.318Z,35.72
2022-12-01T06:36:05.970Z,35.55
2022-12-01T06:38:35.381Z,34.05
2022-12-01T06:41:04.153Z,36.13
2022-12-01T06:43:32.714Z,35.05
2022-12-01T06:46:03.816Z,36.10
2022-12-01T06:48:34.437Z,36.03
2022-12-01T06:51:03.231Z,35.25
2022-12-01T06:53:31.926Z,34.67
2022-12-01T06:56:01.955Z,35.45
2022-12-01T06:58:30.883Z,34.60
2022-12-01T07:00:59.907Z,36.65
2022-12-01T07:03:28.521Z,36.10
2022-12-01T07:05:59.298Z,36.60
2022-12-01T07:08:28.432Z,37.65
2022-12-01T07:11:00.559Z,39.53
2022-12-01T07:13:33.826Z,37.97
2022-12-01T07:16:03.277Z,35.05
2022-12-01T07:18:32.029Z,37.75
2022-12-01T07:21:02.492Z,37.95
2022-12-01T07:23:31.378Z,40.35
2022-12-01T07:26:00.796Z,42.25
2022-12-01T07:28:29.532Z,39.22
2022-12-01T07:31:03.912Z,40.47
2022-12-01T07:33:32.586Z,41.72
2022-12-01T07:36:02.583Z,43.83
2022-12-01T07:38:31.261Z,43.35
2022-12-01T07:41:03.603Z,43.78
2022-12-01T07:43:32.666Z,43.92
2022-12-01T07:46:06.716Z,47.35
2022-12-01T07:48:37.154Z,46.60
2022-12-01T07:51:07.341Z,43.53
2022-12-01T07:53:35.906Z,47.67
2022-12-01T07:56:08.807Z,46.58
2022-12-01T07:58:37.737Z,44.00
2022-12-01T08:01:09.761Z,47.55
2022-12-01T08:03:38.394Z,46.25
2022-12-01T08:06:08.618Z,47.65
2022-12-01T08:08:40.027Z,47.05
2022-12-01T08:11:09.378Z,49.90
2022-12-01T08:13:41.021Z,50.60
2022-12-01T08:16:10.667Z,49.85
2022-12-01T08:18:40.653Z,45.78
2022-12-01T08:21:11.976Z,49.88
2022-12-01T08:23:42.634Z,49.13
2022-12-01T08:26:13.935Z,48.20
2022-12-01T08:28:42.651Z,47.75
2022-12-01T08:31:12.346Z,47.33
2022-12-01T08:33:41.023Z,46.25
2022-12-01T08:36:11.214Z,50.78
2022-12-01T08:38:39.863Z,51.17
2022-12-01T08:41:10.090Z,50.25
2022-12-01T08:46:29.167Z,48.42
2022-12-01T08:48:59.339Z,52.05
2022-12-01T08:51:29.315Z,51.22
2022-12-01T08:53:58.616Z,49.05
2022-12-01T08:56:28.203Z,50.60
2022-12-01T08:58:57.055Z,47.38
2022-12-01T09:01:26.761Z,50.03
2022-12-01T09:04:06.695Z,45.45
2022-12-01T09:06:39.776Z,46.80
2022-12-01T09:09:08.435Z,48.83
2022-12-01T09:11:37.043Z,47.30
2022-12-01T09:14:05.662Z,46.88
2022-12-01T09:16:34.413Z,47.17
2022-12-01T09:19:03.227Z,46.30
2022-12-01T09:21:32.815Z,46.75
2022-12-01T09:24:02.919Z,46.38
2022-12-01T09:26:31.531Z,46.10
2022-12-01T09:29:01.044Z,46.25
2022-12-01T09:31:29.661Z,45.05
2022-12-01T09:33:58.822Z,48.53
2022-12-01T09:36:27.631Z,46.53
2022-12-01T09:38:56.222Z,48.15
2022-12-01T09:41:29.346Z,49.15
2022-12-01T09:44:00.473Z,48.08
2022-12-01T09:46:33.299Z,45.40
2022-12-01T09:49:02.169Z,46.42
2022-12-01T09:51:34.899Z,48.30
2022-12-01T09:54:03.595Z,48.97
2022-12-01T09:56:35.370Z,48.78
2022-12-01T09:59:07.225Z,47.63
2022-12-01T10:01:37.879Z,48.78
2022-12-01T10:04:09.605Z,47.45
2022-12-01T10:06:43.430Z,47.00
2022-12-01T10:09:18.352Z,48.40
2022-12-01T10:11:48.426Z,48.80
2022-12-01T10:14:20.384Z,46.15
2022-12-01T10:17:00.991Z,46.55
2022-12-01T10:19:32.975Z,45.13
2022-12-01T10:22:16.088Z,46.25
2022-12-01T10:24:52.691Z,48.03
2022-12-01T10:27:29.067Z,45.30
2022-12-01T10:30:01.320Z,47.17
2022-12-01T10:32:32.677Z,48.95
2022-12-01T10:35:03.628Z,52.28
2022-12-01T10:37:32.255Z,47.05
2022-12-01T10:40:00.828Z,43.63
2022-12-01T10:42:35.573Z,46.45
2022-12-01T10:45:05.962Z,47.60
2022-12-01T10:47:34.541Z,43.53
2022-12-01T10:50:04.324Z,43.38
2022-12-01T10:52:35.916Z,46.50
2022-12-01T10:55:05.589Z,46.22
2022-12-01T10:57:37.504Z,42.65
2022-12-01T11:00:09.049Z,44.10
2022-12-01T11:02:37.841Z,42.90
2022-12-01T11:05:07.573Z,43.50
2022-12-01T11:07:37.082Z,43.72
2022-12-01T11:10:16.933Z,44.15
2022-12-01T11:12:47.851Z,44.58
2022-12-01T11:15:21.905Z,40.20
2022-12-01T11:17:50.433Z,39.05
2022-12-01T11:20:28.267Z,40.22
2022-12-01T11:23:15.326Z,39.33
2022-12-01T11:25:44.130Z,39.85
2022-12-01T11:28:23.050Z,39.38
2022-12-01T11:30:56.881Z,37.78
2022-12-01T11:33:25.547Z,36.42
2022-12-01T11:35:54.098Z,38.15
2022-12-01T11:38:30.970Z,35.97
2022-12-01T11:40:59.774Z,36.58
2022-12-01T11:43:31.784Z,34.55
2022-12-01T11:46:02.094Z,37.35
2022-12-01T11:48:31.511Z,40.22
2022-12-01T11:51:08.433Z,40.53
2022-12-01T11:53:40.147Z,41.30
2022-12-01T11:56:23.389Z,36.05
2022-12-01T11:58:56.820Z,39.53
2022-12-01T12:01:35.648Z,32.95
2022-12-01T12:04:10.706Z,36.47
2022-12-01T12:06:43.159Z,35.35
2022-12-01T12:09:29.134Z,36.25
2022-12-01T12:12:03.314Z,36.40
2022-12-01T12:14:39.629Z,37.42
2022-12-01T12:17:18.532Z,35.80
2022-12-01T12:20:07.619Z,36.15
2022-12-01T12:22:42.561Z,36.25
2022-12-01T12:25:23.949Z,35.90
2022-12-01T12:27:56.485Z,34.72
2022-12-01T12:30:28.450Z,35.10
2022-12-01T12:33:25.449Z,33.42
2022-12-01T12:35:58.475Z,36.30
2022-12-01T12:38:36.812Z,34.67
2022-12-01T12:41:14.379Z,33.05
2022-12-01T12:43:45.046Z,33.00
2022-12-01T12:46:16.754Z,33.08
2022-12-01T12:51:45.959Z,32.97
2022-12-01T12:54:21.274Z,32.85
2022-12-01T12:56:53.932Z,33.85
2022-12-01T12:59:26.232Z,32.50
2022-12-01T13:02:00.637Z,32.47
2022-12-01T13:04:33.239Z,33.67
2022-12-01T13:07:03.276Z,34.72
2022-12-01T13:09:35.520Z,33.88
2022-12-01T13:12:06.073Z,33.65
2022-12-01T13:14:36.789Z,34.53
2022-12-01T13:17:15.741Z,32.33
2022-12-01T13:19:46.279Z,33.45
2022-12-01T13:22:15.469Z,32.63
2022-12-01T13:24:44.331Z,32.80
2022-12-01T13:27:16.667Z,39.85
2022-12-01T13:29:48.189Z,34.90
2022-12-01T13:32:33.303Z,32.22
2022-12-01T13:35:02.666Z,32.78
2022-12-01T13:37:32.640Z,32.22
2022-12-01T13:40:11.222Z,30.58
2022-12-01T13:42:39.880Z,31.42
2022-12-01T13:45:16.643Z,32.28
2022-12-01T13:47:52.650Z,30.73
2022-12-01T13:51:04.965Z,31.42
2022-12-01T13:53:36.822Z,33.50
2022-12-01T13:56:29.051Z,28.05
2022-12-01T13:58:57.588Z,29.92
2022-12-01T14:01:53.216Z,33.95
2022-12-01T14:04:41.007Z,30.48
2022-12-01T14:07:31.982Z,29.77
2022-12-01T14:10:09.607Z,29.35
2022-12-01T14:12:41.586Z,31.90
2022-12-01T14:15:24.627Z,29.05
2022-12-01T14:18:07.661Z,30.58
2022-12-01T14:20:44.877Z,31.23
2022-12-01T14:23:25.252Z,30.00
2022-12-01T14:26:13.354Z,28.15
2022-12-01T14:29:21.054Z,31.92
2022-12-01T14:32:25.719Z,28.83
2022-12-01T14:35:04.700Z,27.90
2022-12-01T14:37:50.429Z,31.67
2022-12-01T14:40:25.345Z,29.38
2022-12-01T14:43:12.298Z,29.60
2022-12-01T14:45:43.160Z,31.33
2022-12-01T14:48:13.575Z,30.55
2022-12-01T14:50:46.594Z,30.38
2022-12-01T14:53:26.620Z,29.05
2022-12-01T14:55:59.806Z,27.95
2022-12-01T14:58:29.397Z,28.15
2022-12-01T15:01:04.457Z,29.20
2022-12-01T15:03:39.772Z,28.20
2022-12-01T15:06:08.526Z,28.63
2022-12-01T15:08:43.571Z,26.85
2022-12-01T15:11:21.910Z,30.70
2022-12-01T15:13:51.276Z,28.63
2022-12-01T15:16:20.846Z,26.48
2022-12-01T15:18:49.555Z,28.35
2022-12-01T15:21:20.102Z,28.20
2022-12-01T15:23:57.600Z,29.60
2022-12-01T15:26:28.171Z,28.02
2022-12-01T15:29:16.626Z,27.00
2022-12-01T15:31:49.598Z,26.92
2022-12-01T15:34:20.256Z,29.45
2022-12-01T15:36:49.416Z,29.45
2022-12-01T15:39:21.839Z,30.20
2022-12-01T15:41:53.925Z,29.23
2022-12-01T15:44:26.976Z,29.88
2022-12-01T15:46:55.551Z,31.55
2022-12-01T15:49:29.495Z,32.08
2022-12-01T15:52:07.868Z,31.52
2022-12-01T15:54:37.801Z,31.05
2022-12-01T15:57:06.423Z,31.50
2022-12-01T15:59:37.710Z,31.05
2022-12-01T16:02:31.066Z,33.05
2022-12-01T16:05:04.280Z,32.85
2022-12-01T16:08:10.940Z,32.47
2022-12-01T16:10:29.489Z,31.80
2022-12-01T16:13:31.154Z,32.17
2022-12-01T16:15:59.742Z,31.70
2022-12-01T16:18:30.048Z,34.92
2022-12-01T16:21:04.750Z,32.53
2022-12-01T16:23:35.848Z,31.15
2022-12-01T16:26:08.659Z,33.65
2022-12-01T16:28:37.262Z,33.50
2022-12-01T16:31:06.995Z,32.10
2022-12-01T16:33:40.967Z,36.55
2022-12-01T16:36:09.943Z,34.90
2022-12-01T16:38:38.505Z,32.22
2022-12-01T16:41:17.865Z,33.40
2022-12-01T16:44:05.760Z,32.60
2022-12-01T16:46:35.541Z,33.42
2022-12-01T16:49:05.931Z,33.90
2022-12-01T16:51:54.233Z,35.65
2022-12-01T16:54:23.181Z,32.88
2022-12-01T16:56:53.153Z,33.78
2022-12-01T16:59:23.593Z,34.35
2022-12-01T17:01:52.205Z,39.90
2022-12-01T17:04:20.799Z,36.20
2022-12-01T17:06:49.386Z,52.72
2022-12-01T17:09:19.831Z,34.53
2022-12-01T17:11:48.438Z,39.47
2022-12-01T17:14:18.397Z,34.83
2022-12-01T17:16:46.975Z,33.50
2022-12-01T17:19:15.598Z,33.10
2022-12-01T17:21:44.172Z,33.72
2022-12-01T17:24:18.889Z,31.90
2022-12-01T17:26:47.885Z,31.45
2022-12-01T17:29:17.830Z,32.45
2022-12-01T17:31:46.377Z,32.95
2022-12-01T17:34:15.021Z,31.10
2022-12-01T17:36:43.550Z,33.03
2022-12-01T17:39:12.583Z,32.78
2022-12-01T17:41:42.189Z,31.10
2022-12-01T17:44:10.848Z,32.92
2022-12-01T17:46:41.895Z,32.60
2022-12-01T17:49:10.713Z,33.88
2022-12-01T17:51:39.583Z,32.65
2022-12-01T17:54:10.150Z,30.15
2022-12-01T17:56:38.778Z,30.77
2022-12-01T17:59:07.357Z,31.42
2022-12-01T18:01:36.012Z,32.95
2022-12-01T18:04:06.366Z,34.08
2022-12-01T18:06:38.640Z,32.30
2022-12-01T18:09:07.195Z,31.00
2022-12-01T18:11:35.844Z,34.05
2022-12-01T18:14:04.422Z,35.03
2022-12-01T18:16:34.901Z,32.63
2022-12-01T18:19:06.199Z,32.70
2022-12-01T18:21:34.800Z,35.30
2022-12-01T18:24:04.879Z,33.45
2022-12-01T18:26:34.554Z,34.05
2022-12-01T18:29:04.852Z,33.33
2022-12-01T18:31:34.446Z,36.28
2022-12-01T18:34:07.490Z,36.47
2022-12-01T18:36:36.863Z,36.45
2022-12-01T18:39:08.645Z,47.22
2022-12-01T18:41:37.321Z,33.22
2022-12-01T18:44:06.000Z,33.63
2022-12-01T18:46:34.762Z,32.60
2022-12-01T18:49:04.692Z,34.17
2022-12-01T18:51:35.493Z,32.88
2022-12-01T18:54:05.289Z,32.28
2022-12-01T18:56:34.019Z,34.10
2022-12-01T18:59:03.807Z,35.00
2022-12-01T19:01:36.111Z,31.83
2022-12-01T19:04:05.162Z,34.15
2022-12-01T19:06:35.906Z,33.60
2022-12-01T19:09:05.771Z,31.80
2022-12-01T19:11:34.363Z,35.40
2022-12-01T19:14:03.572Z,35.05
2022-12-01T19:16:32.336Z,34.15
2022-12-01T19:19:02.208Z,30.98
2022-12-01T19:21:35.590Z,33.10
2022-12-01T19:24:04.251Z,34.72
2022-12-01T19:26:32.893Z,33.70
2022-12-01T19:29:01.489Z,33.17
2022-12-01T19:31:30.189Z,31.08
2022-12-01T19:33:58.824Z,32.72
2022-12-01T19:36:28.478Z,34.10
2022-12-01T19:39:06.000Z,39.28
2022-12-01T19:41:38.537Z,36.83
2022-12-01T19:44:07.753Z,80.63
2022-12-01T19:46:36.385Z,36.50
2022-12-01T19:49:05.645Z,34.63
2022-12-01T19:51:35.578Z,34.90
2022-12-01T19:54:07.209Z,37.28
2022-12-01T19:56:35.906Z,34.67
2022-12-01T19:59:04.962Z,33.60
2022-12-01T20:01:33.717Z,34.72
2022-12-01T20:04:02.441Z,38.75
2022-12-01T20:06:32.032Z,31.92
2022-12-01T20:09:01.685Z,29.52
2022-12-01T20:11:32.990Z,30.17
2022-12-01T20:14:02.007Z,31.67
2022-12-01T20:16:33.180Z,30.90
2022-12-01T20:19:02.352Z,30.40
2022-12-01T20:21:32.227Z,31.52
2022-12-01T20:24:01.596Z,29.77
2022-12-01T20:26:32.586Z,28.60
2022-12-01T20:29:02.667Z,30.35
2022-12-01T20:31:31.855Z,31.20
2022-12-01T20:34:01.558Z,31.38
2022-12-01T20:36:30.183Z,29.55
2022-12-01T20:38:58.833Z,30.33
2022-12-01T20:41:27.438Z,31.17
2022-12-01T20:44:01.176Z,30.48
2022-12-01T20:46:32.434Z,30.75
2022-12-01T20:49:01.929Z,30.27
2022-12-01T20:51:33.156Z,29.55
2022-12-01T20:54:26.681Z,29.55
2022-12-01T20:56:50.566Z,31.67
2022-12-01T20:59:20.557Z,30.13
2022-12-01T21:01:50.968Z,31.30
2022-12-01T21:04:19.569Z,28.75
2022-12-01T21:06:49.950Z,31.10
2022-12-01T21:09:18.888Z,29.90
2022-12-01T21:12:07.689Z,30.70
2022-12-01T21:14:40.383Z,29.25
2022-12-01T21:17:21.634Z,29.60
2022-12-01T21:19:53.481Z,30.08
2022-12-01T21:22:22.390Z,30.35
2022-12-01T21:24:53.655Z,29.40
2022-12-01T21:27:22.696Z,29.10
2022-12-01T21:29:54.245Z,31.15
2022-12-01T21:32:28.190Z,28.63
2022-12-01T21:34:56.841Z,28.92
2022-12-01T21:37:26.145Z,29.77
2022-12-01T21:39:56.907Z,29.88
2022-12-01T21:42:27.749Z,28.63
2022-12-01T21:44:58.645Z,28.13
2022-12-01T21:47:30.736Z,28.02
2022-12-01T21:50:00.416Z,28.15
2022-12-01T21:52:31.807Z,27.63
2022-12-01T21:55:03.378Z,29.85
2022-12-01T21:57:43.826Z,29.35
2022-12-01T22:00:27.825Z,29.10
2022-12-01T22:03:22.573Z,27.25
2022-12-01T22:06:21.174Z,27.85
2022-12-01T22:08:46.273Z,29.25
2022-12-01T22:11:18.808Z,28.17
2022-12-01T22:13:53.128Z,31.65
2022-12-01T22:16:26.925Z,28.40
2022-12-01T22:18:56.407Z,27.85
2022-12-01T22:21:45.570Z,27.70
2022-12-01T22:24:27.929Z,30.00
2022-12-01T22:27:05.079Z,29.38
2022-12-01T22:29:38.005Z,30.42
2022-12-01T22:32:35.714Z,27.83
2022-12-01T22:35:26.806Z,30.20
2022-12-01T22:37:56.500Z,28.80
2022-12-01T22:40:42.211Z,29.65
2022-12-01T22:43:47.417Z,26.75
2022-12-01T22:46:30.444Z,30.85
2022-12-01T22:49:01.269Z,28.83
2022-12-01T22:51:41.186Z,27.65
2022-12-01T22:54:28.297Z,28.95
2022-12-01T22:57:25.855Z,28.67
2022-12-01T22:59:54.437Z,27.38
2022-12-01T23:02:24.402Z,28.10
2022-12-01T23:04:56.743Z,29.70
2022-12-01T23:07:29.972Z,26.42
2022-12-01T23:10:02.458Z,29.17
2022-12-01T23:12:31.580Z,28.35
2022-12-01T23:15:01.782Z,27.98
2022-12-01T23:17:32.097Z,29.33
2022-12-01T23:20:15.706Z,28.88
2022-12-01T23:22:44.324Z,26.42
2022-12-01T23:25:14.973Z,28.50
2022-12-01T23:27:43.660Z,29.30
2022-12-01T23:30:13.229Z,28.98
2022-12-01T23:32:41.859Z,28.10
2022-12-01T23:35:14.689Z,28.38
2022-12-01T23:37:44.035Z,28.65
2022-12-01T23:40:17.978Z,27.88
2022-12-01T23:42:46.601Z,28.88
2022-12-01T23:45:17.104Z,26.95
2022-12-01T23:47:45.971Z,28.55
2022-12-01T23:50:23.173Z,28.00
2022-12-01T23:52:51.741Z,28.35
2022-12-01T23:55:22.825Z,27.83
2022-12-01T23:57:51.429Z,27.17
